createdAt,value
2022-12-17T00:00:04.541Z,74.35
2022-12-17T00:01:49.547Z,69.53
2022-12-17T00:03:09.443Z,68.47
2022-12-17T00:04:30.153Z,84.25
2022-12-17T00:05:49.654Z,69.55
2022-12-17T00:07:23.982Z,70.85
2022-12-17T00:08:48.489Z,77.55
2022-12-17T00:10:09.056Z,65.85
2022-12-17T00:11:29.442Z,80.45
2022-12-17T00:12:49.361Z,68.85
2022-12-17T00:14:08.813Z,57.95
2022-12-17T00:15:31.059Z,66.80
2022-12-17T00:16:51.442Z,62.83
2022-12-17T00:18:12.644Z,74.22
2022-12-17T00:19:32.807Z,66.63
2022-12-17T00:20:53.146Z,73.25
2022-12-17T00:22:13.930Z,75.90
2022-12-17T00:23:34.567Z,66.72
2022-12-17T00:24:56.283Z,55.45
2022-12-17T00:26:17.262Z,54.65
2022-12-17T00:27:37.580Z,60.10
2022-12-17T00:28:57.834Z,67.68
2022-12-17T00:30:18.152Z,70.25
2022-12-17T00:31:48.054Z,62.35
2022-12-17T00:33:09.348Z,60.13
2022-12-17T00:34:30.401Z,68.32
2022-12-17T00:35:50.531Z,56.42
2022-12-17T00:37:09.682Z,63.65
2022-12-17T00:38:33.628Z,67.45
2022-12-17T00:39:59.112Z,68.07
2022-12-17T00:41:21.855Z,64.05
2022-12-17T00:42:42.350Z,67.55
2022-12-17T00:44:02.684Z,77.15
2022-12-17T00:45:24.065Z,71.68
2022-12-17T00:46:45.260Z,62.08
2022-12-17T00:48:05.766Z,70.03
2022-12-17T00:49:25.739Z,57.80
2022-12-17T00:50:53.995Z,69.72
2022-12-17T00:52:26.367Z,63.42
2022-12-17T00:53:46.601Z,58.35
2022-12-17T00:55:06.585Z,66.20
2022-12-17T00:56:26.815Z,64.80
2022-12-17T00:57:46.942Z,64.70
2022-12-17T00:59:07.289Z,59.60
2022-12-17T01:00:28.714Z,61.60
2022-12-17T01:01:50.495Z,51.85
2022-12-17T01:03:10.497Z,60.17
2022-12-17T01:04:30.856Z,65.65
2022-12-17T01:05:51.273Z,62.47
2022-12-17T01:07:11.333Z,60.20
2022-12-17T01:08:33.547Z,53.15
2022-12-17T01:09:53.874Z,71.65
2022-12-17T01:11:17.170Z,74.45
2022-12-17T01:12:37.581Z,67.03
2022-12-17T01:13:58.435Z,60.95
2022-12-17T01:15:18.745Z,62.65
2022-12-17T01:16:39.007Z,66.53
2022-12-17T01:18:00.238Z,65.50
2022-12-17T01:19:20.383Z,64.57
2022-12-17T01:20:40.682Z,57.47
2022-12-17T01:22:01.558Z,63.97
2022-12-17T01:23:21.946Z,65.28
2022-12-17T01:24:42.303Z,63.92
2022-12-17T01:26:10.195Z,63.63
2022-12-17T01:27:30.878Z,62.60
2022-12-17T01:28:51.205Z,56.95
2022-12-17T01:30:11.384Z,70.10
2022-12-17T01:31:35.168Z,65.55
2022-12-17T01:32:55.789Z,89.60
2022-12-17T01:34:17.369Z,69.78
2022-12-17T01:35:37.710Z,69.15
2022-12-17T01:36:57.841Z,69.10
2022-12-17T01:38:17.866Z,66.38
2022-12-17T01:39:38.127Z,71.32
2022-12-17T01:40:58.258Z,68.32
2022-12-17T01:42:18.583Z,65.22
2022-12-17T01:43:50.430Z,68.88
2022-12-17T01:45:12.823Z,67.30
2022-12-17T01:46:33.153Z,65.43
2022-12-17T01:47:57.191Z,57.88
2022-12-17T01:49:18.897Z,75.68
2022-12-17T01:50:41.065Z,74.68
2022-12-17T01:52:01.185Z,70.57
2022-12-17T01:53:24.478Z,66.78
2022-12-17T01:54:46.903Z,62.25
2022-12-17T01:56:17.139Z,61.30
2022-12-17T01:57:38.355Z,70.57
2022-12-17T01:58:59.886Z,67.25
2022-12-17T02:00:23.592Z,68.93
2022-12-17T02:01:43.862Z,72.95
2022-12-17T02:03:04.018Z,68.00
2022-12-17T02:04:27.906Z,64.20
2022-12-17T02:05:56.116Z,71.53
2022-12-17T02:07:28.055Z,64.32
2022-12-17T02:08:59.321Z,59.45
2022-12-17T02:10:27.681Z,62.10
2022-12-17T02:11:53.947Z,66.95
2022-12-17T02:13:18.282Z,61.45
2022-12-17T02:14:41.976Z,66.47
2022-12-17T02:16:08.891Z,72.68
2022-12-17T02:17:35.628Z,74.70
2022-12-17T02:19:01.593Z,59.47
2022-12-17T02:20:36.273Z,61.53
2022-12-17T02:21:59.138Z,66.55
2022-12-17T02:23:29.167Z,60.33
2022-12-17T02:25:03.899Z,65.20
2022-12-17T02:26:30.314Z,61.72
2022-12-17T02:27:52.900Z,65.45
2022-12-17T02:29:16.175Z,50.40
2022-12-17T02:30:38.056Z,70.38
2022-12-17T02:32:02.431Z,81.78
2022-12-17T02:33:31.447Z,62.35
2022-12-17T02:34:51.665Z,71.00
2022-12-17T02:36:23.328Z,59.33
2022-12-17T02:37:43.644Z,57.28
2022-12-17T02:39:04.003Z,48.53
2022-12-17T02:40:25.178Z,50.75
2022-12-17T02:41:47.365Z,53.72
2022-12-17T02:43:08.718Z,56.90
2022-12-17T02:44:37.967Z,49.15
2022-12-17T02:46:08.949Z,56.85
2022-12-17T02:47:32.436Z,52.13
2022-12-17T02:48:53.227Z,55.40
2022-12-17T02:50:13.604Z,48.08
2022-12-17T02:51:33.957Z,51.35
2022-12-17T02:52:58.258Z,45.80
2022-12-17T02:54:21.532Z,53.00
2022-12-17T02:55:41.705Z,54.13
2022-12-17T02:57:02.126Z,49.20
2022-12-17T02:58:24.170Z,47.20
2022-12-17T02:59:44.382Z,46.33
2022-12-17T03:01:04.435Z,50.70
2022-12-17T03:02:24.922Z,48.13
2022-12-17T03:03:48.792Z,52.75
2022-12-17T03:05:43.509Z,47.70
2022-12-17T03:07:06.970Z,51.70
2022-12-17T03:08:27.130Z,49.42
2022-12-17T03:10:02.015Z,57.42
2022-12-17T03:11:22.381Z,48.92
2022-12-17T03:12:42.719Z,52.92
2022-12-17T03:14:04.057Z,48.50
2022-12-17T03:15:24.833Z,47.50
2022-12-17T03:16:45.112Z,53.70
2022-12-17T03:18:05.915Z,45.65
2022-12-17T03:19:28.305Z,55.08
2022-12-17T03:20:48.790Z,53.47
2022-12-17T03:22:23.798Z,46.85
2022-12-17T03:23:48.546Z,45.90
2022-12-17T03:25:08.394Z,50.50
2022-12-17T03:26:37.070Z,52.22
2022-12-17T03:27:56.931Z,44.53
2022-12-17T03:29:18.562Z,47.55
2022-12-17T03:30:39.331Z,43.42
2022-12-17T03:32:00.207Z,49.70
2022-12-17T03:33:21.037Z,53.13
2022-12-17T03:34:41.283Z,49.50
2022-12-17T03:36:01.443Z,49.22
2022-12-17T03:37:22.760Z,54.97
2022-12-17T03:38:43.102Z,52.47
2022-12-17T03:40:03.429Z,53.33
2022-12-17T03:41:23.720Z,54.08
2022-12-17T03:42:43.976Z,46.70
2022-12-17T03:44:04.186Z,50.85
2022-12-17T03:45:26.295Z,45.42
2022-12-17T03:46:46.626Z,47.50
2022-12-17T03:48:08.004Z,48.90
2022-12-17T03:49:24.712Z,53.22
2022-12-17T03:50:45.424Z,53.45
2022-12-17T03:52:05.498Z,53.15
2022-12-17T03:53:25.677Z,55.25
2022-12-17T03:54:45.922Z,51.70
2022-12-17T03:56:06.763Z,49.10
2022-12-17T03:57:28.823Z,49.15
2022-12-17T03:58:48.967Z,59.83
2022-12-17T04:00:05.384Z,49.15
2022-12-17T04:01:28.576Z,49.08
2022-12-17T04:02:48.898Z,58.13
2022-12-17T04:04:09.120Z,48.53
2022-12-17T04:05:29.330Z,49.42
2022-12-17T04:06:49.653Z,57.63
2022-12-17T04:08:10.511Z,47.25
2022-12-17T04:09:30.708Z,48.60
2022-12-17T04:10:51.067Z,52.05
2022-12-17T04:12:11.396Z,53.53
2022-12-17T04:13:35.851Z,41.97
2022-12-17T04:14:59.249Z,50.33
2022-12-17T04:16:19.567Z,43.53
2022-12-17T04:17:40.955Z,53.13
2022-12-17T04:19:01.207Z,50.00
2022-12-17T04:20:21.617Z,42.58
2022-12-17T04:21:41.951Z,51.90
2022-12-17T04:23:01.987Z,48.92
2022-12-17T04:24:22.323Z,51.33
2022-12-17T04:25:42.449Z,46.50
2022-12-17T04:27:02.682Z,44.25
2022-12-17T04:28:22.917Z,53.20
2022-12-17T04:29:43.253Z,49.05
2022-12-17T04:31:03.595Z,40.58
2022-12-17T04:32:23.844Z,48.97
2022-12-17T04:33:45.283Z,51.28
2022-12-17T04:35:05.450Z,44.92
2022-12-17T04:36:25.675Z,47.75
2022-12-17T04:37:49.619Z,39.40
2022-12-17T04:39:09.944Z,45.30
2022-12-17T04:40:26.596Z,50.70
2022-12-17T04:41:46.846Z,50.90
2022-12-17T04:43:07.193Z,37.45
2022-12-17T04:44:27.565Z,41.00
2022-12-17T04:45:47.826Z,45.58
2022-12-17T04:47:07.966Z,48.75
2022-12-17T04:48:28.195Z,56.22
2022-12-17T04:49:49.785Z,45.75
2022-12-17T04:51:09.984Z,54.13
2022-12-17T04:52:30.161Z,48.97
2022-12-17T04:53:50.439Z,53.95
2022-12-17T04:55:11.584Z,45.33
2022-12-17T04:56:32.310Z,47.33
2022-12-17T04:58:02.446Z,55.88
2022-12-17T04:59:23.239Z,55.15
2022-12-17T05:00:43.513Z,54.25
2022-12-17T05:02:03.945Z,53.13
2022-12-17T05:03:25.319Z,55.40
2022-12-17T05:04:45.368Z,51.90
2022-12-17T05:06:06.844Z,60.03
2022-12-17T05:07:26.997Z,53.25
2022-12-17T05:08:47.279Z,53.08
2022-12-17T05:10:07.636Z,51.88
2022-12-17T05:11:30.286Z,48.95
2022-12-17T05:12:50.264Z,48.45
2022-12-17T05:14:10.459Z,50.55
2022-12-17T05:15:30.781Z,51.13
2022-12-17T05:16:51.402Z,51.08
2022-12-17T05:18:12.038Z,55.33
2022-12-17T05:19:32.333Z,49.67
2022-12-17T05:20:52.656Z,46.00
2022-12-17T05:22:14.169Z,47.85
2022-12-17T05:23:34.786Z,42.17
2022-12-17T05:24:55.133Z,43.58
2022-12-17T05:26:22.960Z,56.83
2022-12-17T05:27:43.626Z,46.10
2022-12-17T05:29:18.751Z,38.67
2022-12-17T05:30:39.168Z,50.42
2022-12-17T05:32:09.414Z,48.90
2022-12-17T05:33:36.389Z,49.10
2022-12-17T05:34:57.066Z,44.10
2022-12-17T05:36:18.427Z,45.47
2022-12-17T05:37:51.441Z,44.53
2022-12-17T05:39:11.122Z,43.97
2022-12-17T05:40:31.465Z,44.38
2022-12-17T05:42:06.327Z,41.30
2022-12-17T05:43:30.564Z,36.45
2022-12-17T05:44:50.426Z,47.70
2022-12-17T05:46:10.716Z,44.03
2022-12-17T05:47:35.179Z,42.90
2022-12-17T05:48:55.571Z,42.67
2022-12-17T05:50:15.894Z,40.80
2022-12-17T05:51:38.908Z,39.13
2022-12-17T05:53:11.981Z,46.67
2022-12-17T05:54:32.331Z,39.17
2022-12-17T05:55:52.775Z,38.92
2022-12-17T05:57:13.091Z,45.00
2022-12-17T05:58:33.503Z,45.88
2022-12-17T05:59:53.901Z,45.47
2022-12-17T06:01:13.401Z,43.38
2022-12-17T06:02:33.682Z,53.20
2022-12-17T06:03:54.376Z,49.58
2022-12-17T06:05:33.335Z,47.00
2022-12-17T06:06:53.542Z,51.10
2022-12-17T06:08:22.552Z,42.00
2022-12-17T06:09:46.573Z,44.42
2022-12-17T06:11:06.804Z,42.63
2022-12-17T06:12:27.166Z,46.80
2022-12-17T06:13:47.548Z,46.88
2022-12-17T06:15:07.748Z,49.55
2022-12-17T06:16:27.846Z,49.65
2022-12-17T06:17:48.195Z,53.60
2022-12-17T06:19:08.515Z,43.28
2022-12-17T06:20:29.331Z,43.13
2022-12-17T06:21:49.654Z,43.72
2022-12-17T06:23:17.999Z,47.90
2022-12-17T06:24:44.231Z,44.13
2022-12-17T06:26:06.324Z,48.60
2022-12-17T06:27:29.836Z,43.90
2022-12-17T06:28:50.271Z,40.42
2022-12-17T06:30:14.256Z,49.67
2022-12-17T06:31:38.499Z,42.42
2022-12-17T06:32:58.791Z,45.20
2022-12-17T06:34:19.182Z,59.28
2022-12-17T06:35:39.083Z,39.60
2022-12-17T06:36:59.091Z,49.45
2022-12-17T06:38:20.374Z,47.95
2022-12-17T06:39:41.887Z,35.65
2022-12-17T06:41:02.106Z,43.78
2022-12-17T06:42:22.351Z,41.92
2022-12-17T06:43:46.419Z,41.88
2022-12-17T06:45:07.333Z,43.63
2022-12-17T06:46:27.552Z,45.00
2022-12-17T06:47:53.050Z,45.28
2022-12-17T06:49:12.903Z,45.47
2022-12-17T06:50:33.230Z,44.63
2022-12-17T06:51:53.411Z,51.00
2022-12-17T06:53:18.206Z,50.28
2022-12-17T06:54:38.594Z,42.60
2022-12-17T06:56:00.410Z,50.03
2022-12-17T06:57:20.370Z,45.47
2022-12-17T06:58:40.587Z,48.10
2022-12-17T07:00:00.937Z,46.67
2022-12-17T07:01:25.617Z,49.65
2022-12-17T07:02:45.793Z,50.58
2022-12-17T07:04:05.949Z,42.35
2022-12-17T07:05:26.075Z,47.67
2022-12-17T07:06:46.462Z,47.20
2022-12-17T07:08:06.860Z,44.83
2022-12-17T07:09:39.122Z,47.38
2022-12-17T07:11:00.802Z,42.35
2022-12-17T07:12:21.122Z,47.65
2022-12-17T07:13:41.226Z,48.28
2022-12-17T07:15:01.366Z,42.35
2022-12-17T07:16:22.664Z,59.08
2022-12-17T07:17:42.860Z,34.85
2022-12-17T07:19:07.599Z,40.40
2022-12-17T07:20:28.845Z,32.83
2022-12-17T07:21:49.135Z,47.15
2022-12-17T07:23:13.095Z,41.95
2022-12-17T07:24:33.446Z,47.30
2022-12-17T07:25:54.011Z,45.20
2022-12-17T07:27:16.311Z,42.80
2022-12-17T07:28:36.577Z,53.92
2022-12-17T07:29:56.958Z,44.78
2022-12-17T07:31:17.298Z,43.85
2022-12-17T07:32:37.567Z,48.63
2022-12-17T07:33:57.766Z,43.30
2022-12-17T07:35:18.073Z,44.53
2022-12-17T07:36:37.447Z,42.53
2022-12-17T07:37:57.282Z,41.03
2022-12-17T07:39:17.701Z,44.47
2022-12-17T07:40:38.016Z,44.42
2022-12-17T07:41:58.361Z,49.50
2022-12-17T07:43:19.931Z,47.47
2022-12-17T07:44:40.209Z,43.10
2022-12-17T07:46:00.491Z,42.15
2022-12-17T07:47:20.619Z,44.80
2022-12-17T07:48:40.985Z,40.72
2022-12-17T07:50:01.352Z,36.30
2022-12-17T07:51:22.153Z,43.58
2022-12-17T07:52:42.343Z,45.67
2022-12-17T07:54:02.484Z,42.38
2022-12-17T07:55:22.692Z,48.67
2022-12-17T07:56:42.719Z,46.08
2022-12-17T07:58:02.819Z,39.50
2022-12-17T07:59:27.944Z,39.88
2022-12-17T08:00:49.542Z,48.22
2022-12-17T08:02:09.790Z,44.85
2022-12-17T08:03:30.590Z,42.28
2022-12-17T08:04:50.988Z,46.45
2022-12-17T08:06:11.330Z,46.65
2022-12-17T08:07:33.483Z,45.17
2022-12-17T08:08:54.744Z,43.03
2022-12-17T08:10:14.616Z,35.60
2022-12-17T08:11:34.928Z,39.10
2022-12-17T08:12:55.337Z,50.50
2022-12-17T08:14:15.777Z,45.00
2022-12-17T08:15:43.661Z,42.10
2022-12-17T08:17:03.902Z,42.10
2022-12-17T08:18:26.728Z,41.40
2022-12-17T08:19:47.167Z,47.10
2022-12-17T08:21:07.351Z,43.78
2022-12-17T08:22:27.579Z,42.17
2022-12-17T08:23:47.856Z,43.80
2022-12-17T08:25:08.199Z,38.72
2022-12-17T08:26:28.623Z,40.97
2022-12-17T08:27:49.039Z,50.90
2022-12-17T08:29:17.671Z,40.97
2022-12-17T08:30:39.184Z,41.92
2022-12-17T08:31:59.495Z,49.08
2022-12-17T08:33:21.807Z,37.00
2022-12-17T08:34:56.705Z,43.47
2022-12-17T08:36:16.933Z,46.08
2022-12-17T08:37:36.859Z,41.47
2022-12-17T08:38:57.030Z,32.88
2022-12-17T08:40:16.966Z,40.60
2022-12-17T08:41:37.479Z,37.00
2022-12-17T08:42:57.805Z,44.83
2022-12-17T08:44:17.924Z,53.20
2022-12-17T08:45:39.512Z,37.97
2022-12-17T08:47:09.699Z,43.88
2022-12-17T08:48:32.699Z,38.42
2022-12-17T08:49:53.021Z,41.63
2022-12-17T08:51:13.354Z,33.05
2022-12-17T08:52:33.671Z,40.65
2022-12-17T08:53:54.010Z,38.42
2022-12-17T08:55:14.590Z,36.97
2022-12-17T08:56:34.885Z,36.25
2022-12-17T08:57:55.185Z,43.33
2022-12-17T08:59:15.535Z,36.20
2022-12-17T09:00:35.926Z,40.92
2022-12-17T09:01:57.599Z,48.47
2022-12-17T09:03:23.367Z,46.45
2022-12-17T09:04:43.701Z,33.90
2022-12-17T09:06:03.994Z,34.15
2022-12-17T09:07:24.325Z,37.80
2022-12-17T09:08:44.377Z,37.70
2022-12-17T09:10:04.622Z,43.50
2022-12-17T09:11:24.870Z,37.63
2022-12-17T09:12:45.215Z,38.45
2022-12-17T09:14:05.410Z,36.35
2022-12-17T09:15:22.728Z,36.80
2022-12-17T09:16:43.346Z,34.35
2022-12-17T09:18:04.784Z,37.83
2022-12-17T09:19:25.078Z,34.88
2022-12-17T09:20:45.322Z,36.03
2022-12-17T09:22:06.462Z,34.78
2022-12-17T09:23:27.256Z,41.60
2022-12-17T09:24:47.720Z,43.00
2022-12-17T09:26:17.850Z,49.25
2022-12-17T09:27:38.861Z,37.33
2022-12-17T09:28:58.863Z,35.75
2022-12-17T09:30:19.122Z,34.88
2022-12-17T09:31:39.323Z,39.97
2022-12-17T09:33:00.074Z,40.45
2022-12-17T09:34:26.946Z,36.22
2022-12-17T09:35:46.824Z,40.00
2022-12-17T09:37:07.171Z,37.50
2022-12-17T09:38:29.931Z,39.25
2022-12-17T09:39:49.853Z,42.65
2022-12-17T09:41:10.540Z,35.20
2022-12-17T09:42:38.730Z,45.28
2022-12-17T09:44:05.692Z,35.75
2022-12-17T09:45:30.886Z,43.10
2022-12-17T09:47:02.781Z,39.47
2022-12-17T09:48:32.730Z,43.53
2022-12-17T09:49:55.820Z,39.90
2022-12-17T09:51:16.085Z,41.95
2022-12-17T09:52:41.419Z,46.63
2022-12-17T09:54:04.711Z,44.17
2022-12-17T09:55:35.294Z,38.92
2022-12-17T09:56:57.186Z,37.33
2022-12-17T09:58:17.740Z,39.83
2022-12-17T09:59:40.273Z,38.70
2022-12-17T10:01:01.198Z,41.25
2022-12-17T10:02:31.505Z,40.88
2022-12-17T10:03:53.783Z,42.63
2022-12-17T10:05:18.329Z,41.22
2022-12-17T10:06:43.187Z,41.53
2022-12-17T10:08:04.984Z,43.92
2022-12-17T10:09:30.175Z,47.72
2022-12-17T10:10:51.926Z,46.40
2022-12-17T10:12:12.100Z,44.17
2022-12-17T10:13:34.679Z,41.90
2022-12-17T10:14:54.955Z,42.58
2022-12-17T10:16:15.101Z,43.45
2022-12-17T10:17:38.590Z,41.97
2022-12-17T10:18:59.552Z,46.03
2022-12-17T10:20:22.178Z,45.88
2022-12-17T10:21:38.618Z,44.05
2022-12-17T10:23:04.498Z,45.53
2022-12-17T10:24:25.054Z,38.63
2022-12-17T10:25:45.499Z,44.38
2022-12-17T10:27:07.264Z,43.63
2022-12-17T10:28:44.935Z,35.42
2022-12-17T10:30:05.250Z,41.15
2022-12-17T10:31:38.209Z,42.78
2022-12-17T10:33:28.516Z,46.13
2022-12-17T10:34:54.547Z,45.97
2022-12-17T10:36:27.487Z,48.92
2022-12-17T10:37:52.956Z,39.67
2022-12-17T10:39:14.240Z,40.47
2022-12-17T10:40:41.615Z,41.10
2022-12-17T10:42:01.815Z,40.13
2022-12-17T10:43:22.957Z,43.45
2022-12-17T10:44:46.302Z,53.20
2022-12-17T10:46:13.100Z,52.65
2022-12-17T10:47:35.655Z,53.30
2022-12-17T10:48:56.066Z,49.92
2022-12-17T10:50:17.261Z,43.20
2022-12-17T10:51:43.939Z,52.33
2022-12-17T10:53:05.484Z,50.47
2022-12-17T10:54:37.958Z,45.35
2022-12-17T10:56:07.231Z,50.03
2022-12-17T10:57:42.685Z,50.35
2022-12-17T10:59:05.166Z,47.72
2022-12-17T11:00:41.942Z,45.10
2022-12-17T11:02:06.076Z,43.83
2022-12-17T11:03:42.871Z,47.70
2022-12-17T11:05:10.380Z,42.40
2022-12-17T11:06:38.919Z,43.05
2022-12-17T11:08:03.732Z,42.97
2022-12-17T11:09:24.061Z,41.88
2022-12-17T11:10:48.495Z,46.22
2022-12-17T11:12:11.747Z,40.13
2022-12-17T11:13:36.083Z,43.00
2022-12-17T11:15:20.083Z,45.53
2022-12-17T11:16:44.019Z,43.97
2022-12-17T11:18:11.093Z,45.22
2022-12-17T11:19:47.573Z,45.30
2022-12-17T11:21:17.098Z,48.03
2022-12-17T11:22:53.525Z,44.70
2022-12-17T11:24:22.473Z,42.13
2022-12-17T11:25:52.552Z,40.60
2022-12-17T11:27:14.935Z,44.15
2022-12-17T11:28:40.211Z,45.00
2022-12-17T11:30:00.487Z,44.83
2022-12-17T11:31:41.249Z,44.50
2022-12-17T11:33:28.190Z,39.63
2022-12-17T11:35:11.375Z,45.88
2022-12-17T11:36:39.069Z,43.35
2022-12-17T11:38:08.930Z,42.67
2022-12-17T11:39:38.292Z,46.03
2022-12-17T11:41:00.672Z,37.53
2022-12-17T11:42:30.341Z,37.75
2022-12-17T11:43:58.306Z,43.90
2022-12-17T11:45:24.099Z,43.45
2022-12-17T11:46:54.590Z,44.70
2022-12-17T11:48:19.374Z,42.80
2022-12-17T11:49:49.770Z,39.15
2022-12-17T11:51:20.835Z,40.03
2022-12-17T11:52:49.318Z,38.60
2022-12-17T11:54:19.329Z,35.63
2022-12-17T11:55:49.051Z,40.05
2022-12-17T11:57:28.342Z,37.80
2022-12-17T11:58:55.801Z,37.08
2022-12-17T12:00:20.996Z,39.10
2022-12-17T12:01:50.225Z,40.60
2022-12-17T12:03:23.163Z,42.75
2022-12-17T12:04:56.865Z,44.35
2022-12-17T12:06:18.864Z,37.85
2022-12-17T12:07:47.155Z,41.70
2022-12-17T12:09:23.073Z,41.70
2022-12-17T12:10:52.120Z,38.47
2022-12-17T12:12:28.386Z,37.63
2022-12-17T12:13:56.639Z,40.47
2022-12-17T12:15:27.096Z,36.33
2022-12-17T12:16:54.759Z,38.13
2022-12-17T12:18:20.844Z,34.92
2022-12-17T12:19:48.740Z,35.78
2022-12-17T12:21:29.062Z,34.70
2022-12-17T12:23:11.109Z,36.38
2022-12-17T12:24:48.971Z,40.20
2022-12-17T12:26:21.136Z,37.08
2022-12-17T12:27:47.957Z,39.83
2022-12-17T12:29:13.908Z,38.08
2022-12-17T12:30:36.636Z,41.38
2022-12-17T12:32:03.076Z,32.00
2022-12-17T12:33:37.898Z,35.28
2022-12-17T12:35:00.330Z,32.25
2022-12-17T12:36:23.224Z,43.63
2022-12-17T12:37:43.601Z,42.08
2022-12-17T12:39:12.442Z,36.13
2022-12-17T12:40:39.676Z,41.72
2022-12-17T12:42:09.977Z,40.53
2022-12-17T12:43:38.150Z,38.40
2022-12-17T12:45:07.239Z,41.58
2022-12-17T12:46:35.161Z,36.00
2022-12-17T12:48:04.404Z,38.60
2022-12-17T12:49:35.319Z,33.53
2022-12-17T12:51:03.723Z,35.80
2022-12-17T12:52:23.934Z,33.95
2022-12-17T12:53:44.051Z,35.25
2022-12-17T12:55:11.904Z,34.58
2022-12-17T12:56:46.955Z,37.00
2022-12-17T12:58:17.429Z,33.50
2022-12-17T12:59:49.596Z,34.70
2022-12-17T13:01:12.457Z,37.33
2022-12-17T13:02:44.059Z,33.00
2022-12-17T13:04:11.532Z,34.00
2022-12-17T13:05:35.642Z,33.50
2022-12-17T13:06:42.158Z,40.33
2022-12-17T13:07:43.782Z,34.80
2022-12-17T13:08:46.313Z,27.60
2022-12-17T13:09:50.229Z,35.25
2022-12-17T13:10:54.545Z,32.45
2022-12-17T13:12:14.572Z,38.65
2022-12-17T13:13:30.470Z,31.55
2022-12-17T13:14:36.544Z,36.45
2022-12-17T13:15:44.915Z,34.60
2022-12-17T13:16:54.872Z,32.47
2022-12-17T13:18:03.664Z,32.67
2022-12-17T13:19:19.765Z,36.88
2022-12-17T13:20:26.078Z,36.60
2022-12-17T13:21:29.510Z,33.60
2022-12-17T13:22:33.446Z,36.25
2022-12-17T13:23:37.990Z,38.70
2022-12-17T13:24:39.838Z,33.10
2022-12-17T13:25:42.728Z,37.80
2022-12-17T13:26:44.982Z,38.00
2022-12-17T13:27:48.624Z,34.88
2022-12-17T13:29:12.474Z,34.30
2022-12-17T13:30:22.777Z,40.47
2022-12-17T13:31:27.513Z,29.45
2022-12-17T13:32:34.867Z,36.40
2022-12-17T13:33:45.755Z,37.30
2022-12-17T13:35:03.243Z,35.85
2022-12-17T13:36:18.869Z,32.63
2022-12-17T13:37:35.124Z,38.22
2022-12-17T13:38:46.560Z,35.38
2022-12-17T13:39:55.940Z,38.38
2022-12-17T13:41:10.194Z,34.72
2022-12-17T13:42:19.053Z,34.20
2022-12-17T13:43:33.345Z,39.22
2022-12-17T13:44:46.297Z,37.10
2022-12-17T13:45:48.481Z,34.33
2022-12-17T13:46:52.494Z,38.92
2022-12-17T13:47:55.695Z,39.47
2022-12-17T13:49:00.398Z,35.05
2022-12-17T13:51:37.911Z,39.72
2022-12-17T13:52:39.489Z,36.08
2022-12-17T13:53:52.720Z,37.30
2022-12-17T13:54:55.028Z,36.92
2022-12-17T13:56:00.042Z,33.28
2022-12-17T13:57:10.437Z,29.05
2022-12-17T13:58:22.046Z,29.65
2022-12-17T13:59:25.809Z,34.88
2022-12-17T14:00:31.276Z,32.33
2022-12-17T14:01:34.028Z,31.10
2022-12-17T14:02:38.944Z,34.63
2022-12-17T14:05:21.955Z,37.70
2022-12-17T14:06:26.561Z,33.30
2022-12-17T14:07:34.715Z,31.33
2022-12-17T14:08:36.801Z,42.97
2022-12-17T14:09:43.759Z,38.65
2022-12-17T14:10:50.750Z,33.38
2022-12-17T14:12:11.022Z,37.22
2022-12-17T14:13:16.760Z,39.22
2022-12-17T14:14:30.286Z,41.00
2022-12-17T14:15:34.190Z,35.22
2022-12-17T14:16:35.908Z,36.03
2022-12-17T14:17:43.394Z,34.72
2022-12-17T14:18:49.130Z,34.00
2022-12-17T14:20:00.318Z,37.63
2022-12-17T14:21:03.902Z,35.55
2022-12-17T14:22:06.607Z,35.47
2022-12-17T14:23:15.187Z,37.75
2022-12-17T14:24:20.750Z,34.92
2022-12-17T14:25:25.291Z,37.58
2022-12-17T14:26:26.933Z,38.60
2022-12-17T14:27:33.992Z,38.28
2022-12-17T14:28:39.147Z,42.53
2022-12-17T14:29:46.367Z,32.90
2022-12-17T14:31:24.960Z,41.95
2022-12-17T14:32:23.873Z,37.10
2022-12-17T14:33:29.264Z,44.33
2022-12-17T14:34:41.267Z,40.03
2022-12-17T14:35:52.143Z,40.55
2022-12-17T14:36:57.758Z,35.75
2022-12-17T14:37:59.571Z,38.88
2022-12-17T14:39:10.874Z,41.95
2022-12-17T14:40:15.813Z,37.38
2022-12-17T14:41:35.742Z,39.67
2022-12-17T14:42:37.495Z,37.70
2022-12-17T14:43:39.994Z,34.50
2022-12-17T14:44:52.024Z,36.17
2022-12-17T14:46:16.964Z,37.17
2022-12-17T14:47:22.223Z,35.70
2022-12-17T14:48:47.594Z,35.65
2022-12-17T14:49:56.154Z,31.58
2022-12-17T14:51:22.205Z,38.33
2022-12-17T14:52:37.138Z,39.28
2022-12-17T14:53:39.639Z,35.55
2022-12-17T14:54:47.034Z,34.38
2022-12-17T14:55:55.781Z,34.70
2022-12-17T14:56:59.297Z,28.48
2022-12-17T14:58:15.023Z,29.60
2022-12-17T14:59:24.910Z,26.73
2022-12-17T15:00:27.412Z,32.75
2022-12-17T15:01:30.381Z,27.85
2022-12-17T15:02:36.485Z,28.52
2022-12-17T15:03:41.176Z,25.77
2022-12-17T15:04:44.054Z,26.92
2022-12-17T15:05:51.212Z,25.40
2022-12-17T15:06:55.274Z,29.23
2022-12-17T15:07:56.978Z,37.05
2022-12-17T15:08:59.522Z,30.20
2022-12-17T15:10:09.651Z,31.75
2022-12-17T15:11:12.635Z,25.88
2022-12-17T15:12:15.141Z,34.40
2022-12-17T15:13:17.641Z,31.55
2022-12-17T15:14:19.140Z,26.45
2022-12-17T15:15:21.944Z,28.80
2022-12-17T15:16:24.644Z,30.67
2022-12-17T15:17:27.616Z,26.73
2022-12-17T15:18:30.134Z,28.65
2022-12-17T15:19:31.707Z,31.40
2022-12-17T15:20:34.250Z,26.98
2022-12-17T15:21:36.795Z,31.27
2022-12-17T15:22:38.685Z,35.30
2022-12-17T15:23:45.081Z,30.40
2022-12-17T15:24:47.969Z,35.40
2022-12-17T15:25:51.619Z,29.58
2022-12-17T15:26:54.584Z,25.27
2022-12-17T15:27:56.703Z,28.30
2022-12-17T15:28:59.710Z,34.22
2022-12-17T15:30:01.307Z,33.45
2022-12-17T15:31:04.612Z,39.28
2022-12-17T15:32:06.349Z,35.00
2022-12-17T15:33:10.923Z,34.15
2022-12-17T15:34:12.523Z,31.67
2022-12-17T15:35:15.142Z,27.58
2022-12-17T15:36:16.742Z,31.20
2022-12-17T15:37:25.474Z,31.52
2022-12-17T15:38:28.928Z,31.27
2022-12-17T15:39:30.487Z,34.85
2022-12-17T15:40:33.425Z,29.30
2022-12-17T15:41:53.533Z,30.05
2022-12-17T15:43:13.662Z,29.50
2022-12-17T15:44:16.287Z,31.88
2022-12-17T15:45:17.844Z,31.70
2022-12-17T15:46:20.445Z,32.08
2022-12-17T15:47:22.039Z,30.63
2022-12-17T15:48:25.881Z,33.72
2022-12-17T15:49:27.395Z,27.30
2022-12-17T15:50:29.895Z,24.85
2022-12-17T15:51:31.534Z,29.25
2022-12-17T15:52:34.086Z,27.77
2022-12-17T15:53:36.910Z,33.20
2022-12-17T15:54:38.684Z,29.67
2022-12-17T15:55:41.292Z,32.30
2022-12-17T15:56:42.778Z,26.85
2022-12-17T15:57:45.302Z,27.63
2022-12-17T15:58:46.890Z,27.83
2022-12-17T15:59:49.411Z,33.00
2022-12-17T16:00:50.911Z,32.05
2022-12-17T16:01:55.654Z,32.05
2022-12-17T16:03:00.823Z,30.05
2022-12-17T16:04:07.925Z,32.00
2022-12-17T16:05:14.533Z,32.28
2022-12-17T16:06:22.528Z,35.00
2022-12-17T16:07:28.590Z,32.67
2022-12-17T16:08:30.602Z,30.98
2022-12-17T16:09:33.141Z,28.45
2022-12-17T16:10:35.691Z,27.67
2022-12-17T16:11:37.183Z,29.27
2022-12-17T16:12:40.131Z,33.55
2022-12-17T16:13:42.369Z,32.72
2022-12-17T16:14:45.041Z,27.92
2022-12-17T16:15:46.628Z,32.35
2022-12-17T16:16:49.429Z,27.90
2022-12-17T16:17:51.950Z,36.58
2022-12-17T16:18:54.535Z,30.27
2022-12-17T16:19:58.454Z,27.65
2022-12-17T16:21:03.530Z,28.80
2022-12-17T16:22:06.075Z,32.85
2022-12-17T16:23:08.579Z,31.30
2022-12-17T16:24:11.601Z,28.80
2022-12-17T16:25:13.137Z,27.83
2022-12-17T16:26:15.639Z,26.65
2022-12-17T16:27:18.077Z,35.50
2022-12-17T16:28:20.567Z,29.02
2022-12-17T16:29:22.394Z,33.35
2022-12-17T16:30:24.897Z,34.08
2022-12-17T16:31:26.446Z,30.75
2022-12-17T16:32:34.561Z,32.95
2022-12-17T16:33:40.850Z,34.42
2022-12-17T16:34:43.383Z,26.65
2022-12-17T16:35:52.521Z,35.13
2022-12-17T16:36:54.051Z,26.45
2022-12-17T16:37:56.530Z,28.52
2022-12-17T16:38:58.035Z,32.33
2022-12-17T16:40:00.925Z,27.75
2022-12-17T16:41:03.745Z,31.85
2022-12-17T16:42:06.503Z,29.95
2022-12-17T16:43:08.097Z,26.33
2022-12-17T16:44:11.320Z,28.25
2022-12-17T16:45:13.941Z,32.10
2022-12-17T16:46:28.675Z,25.33
2022-12-17T16:47:31.270Z,30.05
2022-12-17T16:48:38.318Z,29.20
2022-12-17T16:49:41.156Z,37.72
2022-12-17T16:50:43.314Z,29.67
2022-12-17T16:51:53.050Z,30.67
2022-12-17T16:52:55.083Z,33.65
2022-12-17T16:53:58.462Z,29.63
2022-12-17T16:55:00.927Z,31.98
2022-12-17T16:56:02.652Z,27.30